Time;durP1;ratioP1;P1;durP2;ratioP2;P2;SDS_P1;SDS_P2;PMS_P1;PMS_P2;Temp;Humidity;BMP_temperature;BMP_pressure;BME280_temperature;BME280_humidity;BME280_pressure;Samples;Min_cycle;Max_cycle;Signal;HPM_P1;HPM_P2
2023/01/08 00:00:43;;;;;;;;;;;8.60;99.90;;;;;;4939267;29;19927;-86
2023/01/08 00:03:08;;;;;;;;;;;8.60;99.90;;;;;;4939307;29;19926;-86
2023/01/08 00:05:34;;;;;;;;;;;8.60;99.90;;;;;;4955010;29;20015;-88
2023/01/08 00:07:59;;;;;;;;;;;8.60;99.90;;;;;;4923498;29;19935;-86
2023/01/08 00:10:25;;;;;;;;;;;8.60;99.90;;;;;;4923141;29;19944;-86
2023/01/08 00:12:51;;;;;;;;;;;8.80;99.90;;;;;;4938968;29;19926;-87
2023/01/08 00:15:16;;;;;;;;;;;8.60;99.90;;;;;;4939071;29;19926;-86
2023/01/08 00:17:42;;;;;;;;;;;8.60;99.90;;;;;;4923182;29;20252;-88
2023/01/08 00:20:08;;;;;;;;;;;8.60;99.90;;;;;;4954769;29;19930;-88
2023/01/08 00:22:33;;;;;;;;;;;8.60;99.90;;;;;;4939123;29;20279;-88
2023/01/08 00:24:59;;;;;;;;;;;8.70;99.90;;;;;;4938725;29;20371;-89
2023/01/08 00:27:25;;;;;;;;;;;9.90;99.90;;;;;;4938742;29;19926;-88
2023/01/08 00:29:50;;;;;;;;;;;8.70;99.90;;;;;;4939530;29;19981;-88
2023/01/08 00:32:16;;;;;;;;;;;8.60;99.90;;;;;;4923070;29;19926;-88
2023/01/08 00:34:42;;;;;;;;;;;8.70;99.90;;;;;;4939422;29;19927;-89
2023/01/08 00:37:07;;;;;;;;;;;7.60;99.90;;;;;;4938934;29;19953;-89
2023/01/08 00:39:33;;;;;;;;;;;8.80;99.90;;;;;;4938690;29;20013;-88
2023/01/08 00:41:59;;;;;;;;;;;8.90;99.90;;;;;;4939486;29;19930;-88
2023/01/08 00:44:24;;;;;;;;;;;8.80;99.90;;;;;;4939993;29;19985;-89
2023/01/08 00:46:50;;;;;;;;;;;8.80;99.90;;;;;;4941450;29;20327;-88
2023/01/08 00:49:18;;;;;;;;;;;8.70;99.90;;;;;;4938602;29;20025;-88
2023/01/08 00:51:43;;;;;;;;;;;7.40;99.90;;;;;;4939570;29;19990;-88
2023/01/08 00:54:12;;;;;;;;;;;8.90;99.90;;;;;;4938619;29;20375;-88
2023/01/08 00:56:40;;;;;;;;;;;8.70;99.90;;;;;;4942432;29;19931;-88
2023/01/08 00:59:05;;;;;;;;;;;8.70;99.90;;;;;;4927062;29;20375;-88
2023/01/08 01:01:31;;;;;;;;;;;8.70;99.90;;;;;;4926572;29;19978;-88
2023/01/08 01:03:57;;;;;;;;;;;8.70;99.90;;;;;;4942713;29;19926;-89
2023/01/08 01:06:22;;;;;;;;;;;8.90;99.90;;;;;;4942167;29;19970;-88
2023/01/08 01:08:48;;;;;;;;;;;8.50;99.90;;;;;;4942262;29;20380;-88
2023/01/08 01:11:17;;;;;;;;;;;8.60;99.90;;;;;;4942317;29;19926;-88
2023/01/08 01:13:45;;;;;;;;;;;8.50;99.90;;;;;;4941932;29;20367;-88
2023/01/08 01:16:11;;;;;;;;;;;8.50;99.90;;;;;;4942212;29;20037;-88
2023/01/08 01:18:36;;;;;;;;;;;8.80;99.90;;;;;;4941836;29;19982;-88
2023/01/08 01:21:08;;;;;;;;;;;8.70;99.90;;;;;;4941758;29;19926;-88
2023/01/08 01:23:34;;;;;;;;;;;8.60;99.90;;;;;;4941857;29;19934;-89
2023/01/08 01:25:59;;;;;;;;;;;8.60;99.90;;;;;;4941830;29;19927;-88
2023/01/08 01:28:25;;;;;;;;;;;8.60;99.90;;;;;;4941827;29;19926;-89
2023/01/08 01:30:56;;;;;;;;;;;8.60;99.90;;;;;;4941956;29;19927;-88
2023/01/08 01:33:22;;;;;;;;;;;8.60;99.90;;;;;;4942753;29;20443;-88
2023/01/08 01:35:48;;;;;;;;;;;8.60;99.90;;;;;;4941755;29;19930;-88
2023/01/08 01:38:13;;;;;;;;;;;8.70;99.90;;;;;;4925665;29;19977;-88
2023/01/08 01:40:42;;;;;;;;;;;8.60;99.90;;;;;;4942610;29;19927;-88
2023/01/08 01:43:12;;;;;;;;;;;8.60;99.90;;;;;;4941504;29;19938;-88
2023/01/08 01:45:38;;;;;;;;;;;8.60;99.90;;;;;;4942457;29;20338;-88
2023/01/08 01:48:12;;;;;;;;;;;8.70;99.90;;;;;;4925648;29;19973;-89
2023/01/08 01:50:48;;;;;;;;;;;8.80;99.90;;;;;;4942092;29;19927;-89
2023/01/08 01:53:16;;;;;;;;;;;8.70;99.90;;;;;;4941715;29;19927;-88
2023/01/08 01:55:42;;;;;;;;;;;8.60;99.90;;;;;;4942134;29;19926;-88
2023/01/08 01:58:14;;;;;;;;;;;10.30;99.90;;;;;;4941885;29;20002;-88
2023/01/08 02:00:40;;;;;;;;;;;8.60;99.90;;;;;;4941503;29;19927;-88
2023/01/08 02:03:07;;;;;;;;;;;8.60;99.90;;;;;;4941310;29;20279;-88
2023/01/08 02:05:40;;;;;;;;;;;8.50;99.90;;;;;;4941188;29;19927;-88
2023/01/08 02:08:09;;;;;;;;;;;8.50;99.90;;;;;;4941169;29;19926;-88
2023/01/08 02:10:35;;;;;;;;;;;8.50;99.90;;;;;;4941432;29;19927;-88
2023/01/08 02:13:08;;;;;;;;;;;8.50;99.90;;;;;;4941298;29;19926;-89
2023/01/08 02:15:37;;;;;;;;;;;8.40;99.90;;;;;;4941675;29;19926;-88
2023/01/08 02:18:19;;;;;;;;;;;8.40;99.90;;;;;;4940962;29;19933;-89
2023/01/08 02:21:14;;;;;;;;;;;8.40;99.90;;;;;;4941346;29;19938;-88
2023/01/08 02:23:58;;;;;;;;;;;8.30;99.90;;;;;;4920319;29;19933;-88
2023/01/08 02:26:27;;;;;;;;;;;8.40;99.90;;;;;;4940867;29;19933;-88
2023/01/08 02:29:02;;;;;;;;;;;8.30;99.90;;;;;;4940671;29;19985;-88
2023/01/08 02:31:28;;;;;;;;;;;8.40;99.90;;;;;;4941187;29;19978;-89
2023/01/08 02:33:54;;;;;;;;;;;8.20;99.90;;;;;;4941611;29;19986;-88
2023/01/08 02:36:23;;;;;;;;;;;8.30;99.90;;;;;;4940868;29;19926;-88
2023/01/08 02:39:09;;;;;;;;;;;8.40;99.90;;;;;;4940986;29;19948;-88
2023/01/08 02:41:37;;;;;;;;;;;8.20;99.90;;;;;;4925009;29;19937;-89
2023/01/08 02:44:04;;;;;;;;;;;8.20;99.90;;;;;;4941328;29;20336;-89
2023/01/08 02:46:31;;;;;;;;;;;8.10;99.90;;;;;;4940663;29;20030;-89
2023/01/08 02:49:03;;;;;;;;;;;8.00;99.90;;;;;;4940288;29;19993;-89
2023/01/08 02:51:39;;;;;;;;;;;8.00;99.90;;;;;;4924616;29;19981;-89
2023/01/08 02:54:08;;;;;;;;;;;7.90;99.90;;;;;;4941410;29;19981;-88
2023/01/08 02:56:36;;;;;;;;;;;7.90;99.90;;;;;;4940596;29;19930;-88
2023/01/08 02:59:04;;;;;;;;;;;7.90;99.90;;;;;;4940460;29;19926;-89
2023/01/08 03:01:30;;;;;;;;;;;7.80;99.90;;;;;;4940921;29;19933;-88
2023/01/08 03:04:02;;;;;;;;;;;7.80;99.90;;;;;;4941030;29;19993;-88
2023/01/08 03:06:29;;;;;;;;;;;7.90;99.90;;;;;;4940975;29;19937;-89
2023/01/08 03:08:54;;;;;;;;;;;7.90;99.90;;;;;;4939675;29;19927;-88
2023/01/08 03:11:23;;;;;;;;;;;7.90;99.90;;;;;;4940487;29;19927;-88
2023/01/08 03:13:49;;;;;;;;;;;7.80;99.90;;;;;;4940072;29;20069;-88
2023/01/08 03:16:19;;;;;;;;;;;7.80;99.90;;;;;;4939923;29;19973;-89
2023/01/08 03:18:46;;;;;;;;;;;7.90;99.90;;;;;;4939791;29;19927;-88
2023/01/08 03:21:12;;;;;;;;;;;8.20;99.90;;;;;;4940642;29;20009;-88
2023/01/08 03:23:39;;;;;;;;;;;7.80;99.90;;;;;;4939596;29;20427;-88
2023/01/08 03:26:05;;;;;;;;;;;7.60;99.90;;;;;;4940013;29;19926;-88
2023/01/08 03:28:36;;;;;;;;;;;7.70;99.90;;;;;;4939627;29;20268;-89
2023/01/08 03:31:01;;;;;;;;;;;8.10;99.90;;;;;;4940120;29;19926;-89
2023/01/08 03:33:29;;;;;;;;;;;7.70;99.90;;;;;;4939799;29;20021;-88
2023/01/08 03:35:56;;;;;;;;;;;7.60;99.90;;;;;;4939590;29;19988;-88
2023/01/08 03:38:26;;;;;;;;;;;7.70;99.90;;;;;;4939431;29;19930;-88
2023/01/08 03:40:55;;;;;;;;;;;7.60;99.90;;;;;;4939192;29;19927;-88
2023/01/08 03:43:20;;;;;;;;;;;7.50;99.90;;;;;;4939019;29;19977;-88
2023/01/08 03:45:49;;;;;;;;;;;7.50;99.90;;;;;;4939330;29;19927;-87
2023/01/08 03:48:15;;;;;;;;;;;7.50;99.90;;;;;;4939593;29;20366;-88
2023/01/08 03:50:41;;;;;;;;;;;7.50;99.90;;;;;;4939403;29;20370;-89
2023/01/08 03:53:08;;;;;;;;;;;7.50;99.90;;;;;;4939299;29;19991;-88
2023/01/08 03:55:34;;;;;;;;;;;7.40;99.90;;;;;;4923269;29;19976;-88
2023/01/08 03:57:59;;;;;;;;;;;7.40;99.90;;;;;;4923806;29;20025;-88
2023/01/08 04:00:25;;;;;;;;;;;7.40;99.90;;;;;;4939126;29;19934;-88
2023/01/08 04:02:51;;;;;;;;;;;7.30;99.90;;;;;;4939598;29;19934;-88
2023/01/08 04:05:16;;;;;;;;;;;7.30;99.90;;;;;;4939877;29;19926;-88
2023/01/08 04:07:42;;;;;;;;;;;7.40;99.90;;;;;;4924241;29;20378;-89
2023/01/08 04:10:08;;;;;;;;;;;7.30;99.90;;;;;;4924560;29;19930;-89
2023/01/08 04:12:33;;;;;;;;;;;7.20;99.90;;;;;;4939484;29;19927;-89
2023/01/08 04:14:59;;;;;;;;;;;7.40;99.90;;;;;;4938602;29;19993;-89
2023/01/08 04:17:24;;;;;;;;;;;7.30;99.90;;;;;;4939310;29;19950;-88
2023/01/08 04:19:50;;;;;;;;;;;7.30;99.90;;;;;;4939770;29;19927;-88
2023/01/08 04:22:16;;;;;;;;;;;7.20;99.90;;;;;;4938903;29;20332;-88
2023/01/08 04:24:41;;;;;;;;;;;7.20;99.90;;;;;;4939809;29;20024;-89
2023/01/08 04:27:07;;;;;;;;;;;7.20;99.90;;;;;;4939247;29;20477;-88
2023/01/08 04:29:33;;;;;;;;;;;7.10;99.90;;;;;;4937863;29;19926;-89
2023/01/08 04:31:59;;;;;;;;;;;7.20;99.90;;;;;;4922703;29;19933;-88
2023/01/08 04:34:24;;;;;;;;;;;7.20;99.90;;;;;;4922942;29;19926;-88
2023/01/08 04:36:50;;;;;;;;;;;7.20;99.90;;;;;;4938676;29;20272;-89
2023/01/08 04:39:15;;;;;;;;;;;7.30;99.90;;;;;;4938759;29;20467;-88
2023/01/08 04:41:41;;;;;;;;;;;7.20;99.90;;;;;;4938792;29;19927;-88
2023/01/08 04:44:07;;;;;;;;;;;7.30;99.90;;;;;;4938972;29;19927;-89
2023/01/08 04:46:33;;;;;;;;;;;7.30;99.90;;;;;;4938788;29;19926;-88
2023/01/08 04:48:59;;;;;;;;;;;7.20;99.90;;;;;;4938501;29;20390;-89
2023/01/08 04:51:25;;;;;;;;;;;7.30;99.90;;;;;;4938963;29;19934;-88
2023/01/08 04:53:50;;;;;;;;;;;6.60;99.90;;;;;;4938879;29;19932;-88
2023/01/08 04:56:16;;;;;;;;;;;7.30;99.90;;;;;;4938648;29;19927;-89
2023/01/08 04:58:42;;;;;;;;;;;7.40;99.90;;;;;;4938082;29;19934;-88
2023/01/08 05:01:11;;;;;;;;;;;7.30;99.90;;;;;;4938518;29;19930;-88
2023/01/08 05:03:36;;;;;;;;;;;7.40;99.90;;;;;;4938310;29;19926;-88
2023/01/08 05:06:02;;;;;;;;;;;7.40;99.90;;;;;;4938395;29;19926;-88
2023/01/08 05:08:28;;;;;;;;;;;7.40;99.90;;;;;;4938445;29;19931;-88
2023/01/08 05:10:57;;;;;;;;;;;7.40;99.90;;;;;;4922680;29;20425;-88
2023/01/08 05:13:22;;;;;;;;;;;7.50;99.90;;;;;;4939276;29;19934;-88
2023/01/08 05:15:48;;;;;;;;;;;7.40;99.90;;;;;;4938193;29;19930;-89
2023/01/08 05:18:14;;;;;;;;;;;7.30;99.90;;;;;;4923054;29;19926;-89
2023/01/08 05:20:39;;;;;;;;;;;7.50;99.90;;;;;;4938665;29;19927;-89
2023/01/08 05:23:05;;;;;;;;;;;7.00;99.90;;;;;;4938046;29;19930;-88
2023/01/08 05:25:31;;;;;;;;;;;7.50;99.90;;;;;;4938735;29;19927;-89
2023/01/08 05:27:56;;;;;;;;;;;8.90;99.90;;;;;;4954680;29;19927;-89
2023/01/08 05:30:22;;;;;;;;;;;7.60;99.90;;;;;;4938456;29;19977;-88
2023/01/08 05:32:47;;;;;;;;;;;7.50;99.90;;;;;;4938387;29;20022;-88
2023/01/08 05:35:13;;;;;;;;;;;7.60;99.90;;;;;;4938367;29;20011;-88
2023/01/08 05:37:39;;;;;;;;;;;7.50;99.90;;;;;;4922225;29;19933;-88
2023/01/08 05:40:04;;;;;;;;;;;7.50;99.90;;;;;;4922416;28;19977;-88
2023/01/08 05:42:32;;;;;;;;;;;7.50;99.90;;;;;;4941431;29;19927;-88
2023/01/08 05:44:58;;;;;;;;;;;7.50;99.90;;;;;;4941778;29;20029;-89
2023/01/08 05:47:23;;;;;;;;;;;7.50;99.90;;;;;;4941364;29;20009;-88
2023/01/08 05:49:49;;;;;;;;;;;7.60;99.90;;;;;;4941255;29;19981;-88
2023/01/08 05:52:15;;;;;;;;;;;8.20;99.90;;;;;;4941708;29;19926;-89
2023/01/08 05:54:40;;;;;;;;;;;7.60;99.90;;;;;;4941708;29;19980;-88
2023/01/08 05:57:06;;;;;;;;;;;7.50;99.90;;;;;;4941535;29;19926;-88
2023/01/08 05:59:31;;;;;;;;;;;7.60;99.90;;;;;;4926582;29;19934;-88
2023/01/08 06:01:57;;;;;;;;;;;6.20;99.90;;;;;;4942371;29;20331;-88
2023/01/08 06:04:23;;;;;;;;;;;7.50;99.90;;;;;;4942134;29;19927;-88
2023/01/08 06:06:49;;;;;;;;;;;7.50;99.90;;;;;;4942212;29;20358;-88
2023/01/08 06:09:17;;;;;;;;;;;7.50;99.90;;;;;;4941015;29;20260;-88
2023/01/08 06:11:42;;;;;;;;;;;7.50;99.90;;;;;;4941271;29;19926;-88
2023/01/08 06:14:08;;;;;;;;;;;7.40;99.90;;;;;;4941975;29;19930;-88
2023/01/08 06:16:36;;;;;;;;;;;7.30;99.90;;;;;;4942008;29;19926;-88
2023/01/08 06:19:02;;;;;;;;;;;6.30;99.90;;;;;;4941966;29;19954;-89
2023/01/08 06:21:27;;;;;;;;;;;7.40;99.90;;;;;;4940913;29;19935;-88
2023/01/08 06:23:53;;;;;;;;;;;7.30;99.90;;;;;;4940199;29;19933;-88
2023/01/08 06:26:19;;;;;;;;;;;7.30;99.90;;;;;;4941230;29;19926;-88
2023/01/08 06:28:44;;;;;;;;;;;7.40;99.90;;;;;;4941556;29;20311;-88
2023/01/08 06:31:10;;;;;;;;;;;6.30;99.90;;;;;;4940815;29;19966;-88
2023/01/08 06:33:35;;;;;;;;;;;7.40;99.90;;;;;;4940909;29;19927;-88
2023/01/08 06:36:03;;;;;;;;;;;7.50;99.90;;;;;;4940717;29;20060;-88
2023/01/08 06:38:33;;;;;;;;;;;7.50;99.90;;;;;;4941182;29;19926;-88
2023/01/08 06:41:01;;;;;;;;;;;7.70;99.90;;;;;;4940794;29;19930;-88
2023/01/08 06:43:27;;;;;;;;;;;7.60;99.90;;;;;;4940879;29;19927;-88
2023/01/08 06:45:53;;;;;;;;;;;7.50;99.90;;;;;;4940845;29;20308;-88
2023/01/08 06:48:19;;;;;;;;;;;7.60;99.90;;;;;;4940260;29;19926;-88
2023/01/08 06:50:45;;;;;;;;;;;7.20;99.90;;;;;;4940516;29;20014;-89
2023/01/08 06:53:10;;;;;;;;;;;7.30;99.90;;;;;;4939846;29;19931;-89
2023/01/08 06:55:37;;;;;;;;;;;6.00;99.90;;;;;;4941287;29;19930;-88
2023/01/08 06:58:02;;;;;;;;;;;7.20;99.90;;;;;;4940404;29;20016;-88
2023/01/08 07:00:28;;;;;;;;;;;6.80;99.90;;;;;;4940378;29;20021;-88
2023/01/08 07:02:54;;;;;;;;;;;7.30;99.90;;;;;;4940107;29;19934;-88
2023/01/08 07:05:20;;;;;;;;;;;7.20;99.90;;;;;;4940296;29;19978;-88
2023/01/08 07:07:46;;;;;;;;;;;7.10;99.90;;;;;;4940063;29;20017;-88
2023/01/08 07:10:11;;;;;;;;;;;7.40;99.90;;;;;;4955587;29;20021;-88
2023/01/08 07:12:37;;;;;;;;;;;7.20;99.90;;;;;;4940014;29;19982;-88
2023/01/08 07:15:03;;;;;;;;;;;7.10;99.90;;;;;;4940039;29;19982;-88
2023/01/08 07:17:30;;;;;;;;;;;7.20;99.90;;;;;;4924378;29;19954;-88
2023/01/08 07:19:56;;;;;;;;;;;7.10;99.90;;;;;;4940233;29;19969;-87
2023/01/08 07:22:23;;;;;;;;;;;7.10;99.90;;;;;;4939894;29;19926;-88
2023/01/08 07:24:48;;;;;;;;;;;7.20;99.90;;;;;;4940195;29;19980;-88
2023/01/08 07:27:14;;;;;;;;;;;7.00;99.90;;;;;;4939879;29;20334;-88
2023/01/08 07:29:39;;;;;;;;;;;7.10;99.90;;;;;;4939827;29;19926;-89
2023/01/08 07:32:05;;;;;;;;;;;7.10;99.90;;;;;;4939382;29;19926;-88
2023/01/08 07:34:33;;;;;;;;;;;6.80;99.90;;;;;;4939310;29;20028;-88
2023/01/08 07:36:59;;;;;;;;;;;6.90;99.90;;;;;;4924387;29;19927;-88
2023/01/08 07:39:27;;;;;;;;;;;6.80;99.90;;;;;;4940615;29;20355;-88
2023/01/08 07:41:53;;;;;;;;;;;5.30;99.90;;;;;;4924636;29;19969;-88
2023/01/08 07:44:18;;;;;;;;;;;6.70;99.90;;;;;;4923946;29;20028;-88
2023/01/08 07:46:44;;;;;;;;;;;6.90;99.90;;;;;;4939077;29;19926;-88
2023/01/08 07:49:10;;;;;;;;;;;6.80;99.90;;;;;;4939541;29;20359;-87
2023/01/08 07:51:36;;;;;;;;;;;6.60;99.90;;;;;;4939993;29;19962;-87
2023/01/08 07:54:01;;;;;;;;;;;7.30;99.90;;;;;;4923582;29;19927;-87
2023/01/08 07:56:27;;;;;;;;;;;7.60;99.90;;;;;;4938779;29;20020;-87
2023/01/08 07:58:53;;;;;;;;;;;6.60;99.90;;;;;;4923317;29;19928;-89
2023/01/08 08:01:18;;;;;;;;;;;6.70;99.90;;;;;;4939349;29;19926;-87
2023/01/08 08:03:44;;;;;;;;;;;6.80;99.90;;;;;;4939219;29;19926;-87
2023/01/08 08:06:09;;;;;;;;;;;6.90;99.90;;;;;;4939227;29;20260;-87
2023/01/08 08:08:35;;;;;;;;;;;6.50;99.90;;;;;;4939798;29;19933;-86
2023/01/08 08:11:01;;;;;;;;;;;6.50;99.90;;;;;;4939512;29;19932;-86
2023/01/08 08:13:26;;;;;;;;;;;7.40;99.90;;;;;;4939233;29;20359;-87
2023/01/08 08:15:52;;;;;;;;;;;6.30;99.90;;;;;;4924229;29;20013;-86
2023/01/08 08:18:18;;;;;;;;;;;6.40;99.90;;;;;;4939633;29;19981;-86
2023/01/08 08:20:43;;;;;;;;;;;6.40;99.90;;;;;;4939295;29;19926;-85
2023/01/08 08:23:13;;;;;;;;;;;6.30;99.90;;;;;;4938780;29;20279;-86
2023/01/08 08:25:39;;;;;;;;;;;6.30;99.90;;;;;;4939733;29;19977;-86
2023/01/08 08:28:05;;;;;;;;;;;6.30;99.90;;;;;;4923955;29;19926;-87
2023/01/08 08:30:32;;;;;;;;;;;6.30;99.90;;;;;;4939392;29;19927;-87
2023/01/08 08:32:59;;;;;;;;;;;6.40;99.90;;;;;;4955541;29;20378;-87
2023/01/08 08:35:25;;;;;;;;;;;7.60;99.90;;;;;;4939622;29;20379;-87
2023/01/08 08:37:50;;;;;;;;;;;6.30;99.90;;;;;;4939806;29;19926;-88
2023/01/08 08:40:16;;;;;;;;;;;6.30;99.90;;;;;;4923335;29;19926;-87
2023/01/08 08:42:42;;;;;;;;;;;6.30;99.90;;;;;;4939040;29;19977;-88
2023/01/08 08:45:10;;;;;;;;;;;6.40;99.90;;;;;;4938386;29;20017;-89
2023/01/08 08:47:36;;;;;;;;;;;6.60;99.90;;;;;;4923282;29;19931;-89
2023/01/08 08:50:02;;;;;;;;;;;6.60;99.90;;;;;;4938164;29;19993;-89
2023/01/08 08:52:28;;;;;;;;;;;6.40;99.90;;;;;;4938592;29;19992;-89
2023/01/08 08:55:01;;;;;;;;;;;5.40;99.90;;;;;;4922989;29;19977;-91
2023/01/08 08:57:27;;;;;;;;;;;6.40;99.90;;;;;;4938900;29;19974;-89
2023/01/08 08:59:55;;;;;;;;;;;6.40;99.90;;;;;;4938937;29;20346;-90
2023/01/08 09:02:21;;;;;;;;;;;6.70;99.90;;;;;;4938784;29;19930;-89
2023/01/08 09:04:46;;;;;;;;;;;6.60;99.90;;;;;;4938563;29;19926;-89
2023/01/08 09:07:12;;;;;;;;;;;6.60;99.90;;;;;;4939143;29;19931;-90
2023/01/08 09:09:56;;;;;;;;;;;6.50;99.90;;;;;;4938687;29;19934;-88
2023/01/08 09:12:22;;;;;;;;;;;5.60;99.90;;;;;;4938444;29;19938;-89
2023/01/08 09:14:49;;;;;;;;;;;6.70;99.90;;;;;;4938444;28;19931;-89
2023/01/08 09:17:14;;;;;;;;;;;6.30;99.90;;;;;;4941803;29;19927;-90
2023/01/08 09:19:40;;;;;;;;;;;6.60;99.90;;;;;;4942664;29;20013;-90
2023/01/08 09:22:08;;;;;;;;;;;6.70;99.90;;;;;;4942419;29;19926;-89
2023/01/08 09:24:34;;;;;;;;;;;6.80;99.90;;;;;;4942135;29;20433;-90
2023/01/08 09:27:00;;;;;;;;;;;6.80;99.90;;;;;;4926603;29;20020;-89
2023/01/08 09:29:26;;;;;;;;;;;7.00;99.90;;;;;;4941826;29;19927;-90
2023/01/08 09:31:51;;;;;;;;;;;7.10;99.90;;;;;;4933495;29;19930;-88
2023/01/08 09:34:23;;;;;;;;;;;6.90;99.90;;;;;;4953323;29;20013;-90
2023/01/08 09:36:48;;;;;;;;;;;7.10;99.90;;;;;;4952217;29;20271;-88
2023/01/08 09:39:14;;;;;;;;;;;6.80;99.90;;;;;;4932431;29;19926;-88
2023/01/08 09:41:41;;;;;;;;;;;6.80;99.90;;;;;;4946504;29;19926;-90
2023/01/08 09:44:13;;;;;;;;;;;7.20;99.90;;;;;;4947590;29;19990;-90
2023/01/08 09:46:39;;;;;;;;;;;7.10;99.90;;;;;;4948261;29;20022;-88
2023/01/08 09:49:06;;;;;;;;;;;7.00;99.90;;;;;;4942304;29;19977;-89
2023/01/08 09:51:35;;;;;;;;;;;7.00;99.90;;;;;;4941716;29;20452;-89
2023/01/08 09:54:06;;;;;;;;;;;7.00;99.90;;;;;;4942628;29;20306;-91
2023/01/08 09:56:32;;;;;;;;;;;7.00;99.90;;;;;;4941869;29;19978;-88
2023/01/08 09:58:58;;;;;;;;;;;7.20;99.90;;;;;;4941796;29;20288;-87
2023/01/08 10:01:38;;;;;;;;;;;7.60;99.90;;;;;;4942331;29;19933;-87
2023/01/08 10:04:14;;;;;;;;;;;7.10;99.90;;;;;;4942733;29;19965;-88
2023/01/08 10:06:40;;;;;;;;;;;7.20;99.90;;;;;;4947356;29;19976;-88
2023/01/08 10:09:11;;;;;;;;;;;7.10;99.90;;;;;;4946074;29;19926;-88
2023/01/08 10:11:42;;;;;;;;;;;7.10;99.90;;;;;;4943313;29;20026;-88
2023/01/08 10:14:18;;;;;;;;;;;7.40;99.90;;;;;;4943646;29;19930;-88
2023/01/08 10:16:47;;;;;;;;;;;7.20;99.90;;;;;;4941440;29;19930;-88
2023/01/08 10:19:13;;;;;;;;;;;7.80;99.90;;;;;;4941105;29;20020;-89
2023/01/08 10:21:39;;;;;;;;;;;7.30;99.90;;;;;;4925246;29;20017;-88
2023/01/08 10:24:05;;;;;;;;;;;7.50;99.90;;;;;;4940456;29;20330;-88
2023/01/08 10:26:35;;;;;;;;;;;7.30;99.90;;;;;;4941063;29;19934;-89
2023/01/08 10:29:08;;;;;;;;;;;8.70;99.90;;;;;;4940323;29;20069;-90
2023/01/08 10:31:42;;;;;;;;;;;7.40;99.90;;;;;;4941253;29;20389;-90
2023/01/08 10:34:09;;;;;;;;;;;7.40;99.90;;;;;;4941659;29;20017;-89
2023/01/08 10:36:38;;;;;;;;;;;7.50;99.90;;;;;;4941979;29;19926;-91
2023/01/08 10:39:04;;;;;;;;;;;7.50;99.90;;;;;;4943129;29;19926;-90
2023/01/08 10:41:31;;;;;;;;;;;7.70;99.90;;;;;;4926015;29;19933;-90
2023/01/08 10:44:06;;;;;;;;;;;7.70;99.90;;;;;;4940956;29;19935;-90
2023/01/08 10:46:42;;;;;;;;;;;7.80;99.90;;;;;;4941003;29;20488;-91
2023/01/08 10:49:21;;;;;;;;;;;7.70;99.90;;;;;;4940309;29;19930;-91
2023/01/08 10:51:49;;;;;;;;;;;7.70;99.90;;;;;;4940896;29;20379;-91
2023/01/08 10:54:25;;;;;;;;;;;7.70;99.90;;;;;;4940939;29;19934;-91
2023/01/08 10:56:50;;;;;;;;;;;7.70;99.90;;;;;;4946758;29;19926;-90
2023/01/08 10:59:20;;;;;;;;;;;7.80;99.90;;;;;;4947437;29;19933;-91
2023/01/08 11:01:47;;;;;;;;;;;8.00;99.90;;;;;;4946420;29;20092;-90
2023/01/08 11:04:21;;;;;;;;;;;7.90;99.90;;;;;;4940742;29;19934;-91
2023/01/08 11:06:46;;;;;;;;;;;7.90;99.90;;;;;;4941127;29;19927;-90
2023/01/08 11:09:23;;;;;;;;;;;8.10;99.90;;;;;;4941876;29;19978;-91
2023/01/08 11:11:49;;;;;;;;;;;8.00;99.90;;;;;;4941117;29;20021;-90
2023/01/08 11:14:29;;;;;;;;;;;8.20;99.90;;;;;;4941349;29;20392;-91
2023/01/08 11:16:55;;;;;;;;;;;8.10;99.90;;;;;;4940307;29;19933;-91
2023/01/08 11:19:30;;;;;;;;;;;8.20;99.90;;;;;;4940044;29;20397;-91
2023/01/08 11:21:58;;;;;;;;;;;7.80;99.90;;;;;;4939955;29;19977;-91
2023/01/08 11:24:27;;;;;;;;;;;8.30;99.90;;;;;;4940750;29;20358;-92
2023/01/08 11:27:16;;;;;;;;;;;8.30;99.90;;;;;;4940424;29;19926;-92
2023/01/08 11:29:44;;;;;;;;;;;8.40;99.90;;;;;;4921334;29;19949;-91
2023/01/08 11:32:25;;;;;;;;;;;8.40;99.90;;;;;;4939934;29;19970;-92
2023/01/08 11:35:23;;;;;;;;;;;8.30;99.90;;;;;;4940611;29;19926;-93
2023/01/08 11:37:56;;;;;;;;;;;7.60;99.90;;;;;;4922478;28;19926;-92
2023/01/08 11:40:28;;;;;;;;;;;8.50;99.90;;;;;;4942495;29;20013;-92
2023/01/08 11:43:14;;;;;;;;;;;8.40;99.90;;;;;;4940276;29;19933;-91
2023/01/08 11:45:49;;;;;;;;;;;8.50;99.90;;;;;;4914645;29;19930;-94
2023/01/08 11:48:14;;;;;;;;;;;8.50;99.90;;;;;;4940143;29;19930;-92
2023/01/08 11:50:43;;;;;;;;;;;7.30;99.90;;;;;;4940221;29;19978;-91
2023/01/08 11:53:15;;;;;;;;;;;8.50;99.90;;;;;;4940593;29;19926;-94
2023/01/08 11:55:51;;;;;;;;;;;8.60;99.90;;;;;;4940186;29;19927;-94
2023/01/08 11:58:25;;;;;;;;;;;8.70;99.90;;;;;;4940558;29;20279;-91
2023/01/08 12:01:06;;;;;;;;;;;8.80;99.90;;;;;;4939860;29;19985;-90
2023/01/08 12:03:35;;;;;;;;;;;8.60;99.90;;;;;;4939446;29;19981;-91
2023/01/08 12:06:14;;;;;;;;;;;8.60;99.90;;;;;;4938914;29;19930;-92
2023/01/08 12:08:58;;;;;;;;;;;8.70;99.90;;;;;;4939659;29;20320;-93
2023/01/08 12:11:26;;;;;;;;;;;8.60;99.90;;;;;;4940020;29;19974;-91
2023/01/08 12:14:10;;;;;;;;;;;7.40;99.90;;;;;;4939772;29;20014;-92
2023/01/08 12:16:42;;;;;;;;;;;8.50;99.90;;;;;;4939866;29;19926;-92
2023/01/08 12:19:14;;;;;;;;;;;7.50;99.90;;;;;;4938829;29;19980;-91
2023/01/08 12:22:01;;;;;;;;;;;8.70;99.90;;;;;;4938736;29;19970;-91
2023/01/08 12:24:36;;;;;;;;;;;8.50;99.90;;;;;;4917266;29;19927;-91
2023/01/08 12:27:08;;;;;;;;;;;8.60;99.90;;;;;;4917722;29;19931;-91
2023/01/08 12:29:46;;;;;;;;;;;8.60;99.90;;;;;;4916764;29;20001;-90
2023/01/08 12:39:11;;;;;;;;;;;8.60;99.90;;;;;;4878223;29;19922;-92
2023/01/08 12:41:38;;;;;;;;;;;8.60;99.90;;;;;;4848289;29;20353;-89
2023/01/08 12:44:10;;;;;;;;;;;8.60;99.90;;;;;;4847038;29;19928;-89
2023/01/08 12:46:44;;;;;;;;;;;8.50;99.90;;;;;;4885345;29;19927;-89
2023/01/08 12:49:33;;;;;;;;;;;8.80;99.90;;;;;;4917080;29;20017;-92
2023/01/08 12:52:02;;;;;;;;;;;8.60;99.90;;;;;;4920382;29;20264;-89
2023/01/08 12:54:30;;;;;;;;;;;8.50;99.90;;;;;;4920030;29;19935;-87
2023/01/08 12:57:24;;;;;;;;;;;8.50;99.90;;;;;;4920603;29;19927;-86
2023/01/08 12:59:55;;;;;;;;;;;8.50;99.90;;;;;;4920574;29;19931;-87
2023/01/08 13:02:20;;;;;;;;;;;8.50;99.90;;;;;;4920068;29;19931;-87
2023/01/08 13:04:47;;;;;;;;;;;8.70;99.90;;;;;;4920034;29;19934;-89
2023/01/08 13:07:25;;;;;;;;;;;8.60;99.90;;;;;;4920966;29;20005;-88
2023/01/08 13:10:04;;;;;;;;;;;8.60;99.90;;;;;;4920153;29;20081;-89
2023/01/08 13:12:40;;;;;;;;;;;8.60;99.90;;;;;;4921181;29;19933;-91
2023/01/08 13:15:18;;;;;;;;;;;8.50;99.90;;;;;;4919858;29;19927;-89
2023/01/08 13:17:46;;;;;;;;;;;8.60;99.90;;;;;;4920651;29;20353;-89
2023/01/08 13:20:38;;;;;;;;;;;8.50;99.90;;;;;;4919964;29;20022;-89
2023/01/08 13:23:23;;;;;;;;;;;8.80;99.90;;;;;;4913521;29;19934;-88
2023/01/08 13:25:53;;;;;;;;;;;8.60;99.90;;;;;;4938748;29;20488;-91
2023/01/08 13:28:21;;;;;;;;;;;8.50;99.90;;;;;;4938328;29;20027;-88
2023/01/08 13:31:09;;;;;;;;;;;8.20;99.90;;;;;;4939955;29;19950;-92
2023/01/08 13:33:35;;;;;;;;;;;8.70;99.90;;;;;;4939333;29;20454;-88
2023/01/08 13:36:23;;;;;;;;;;;7.40;99.90;;;;;;4939678;29;19927;-89
2023/01/08 13:39:03;;;;;;;;;;;8.50;99.90;;;;;;4940112;29;20311;-89
2023/01/08 13:41:30;;;;;;;;;;;8.50;99.90;;;;;;4939839;29;20275;-89
2023/01/08 13:44:04;;;;;;;;;;;8.60;99.90;;;;;;4938538;29;19982;-88
2023/01/08 13:46:36;;;;;;;;;;;8.20;99.90;;;;;;4939122;29;20253;-90
2023/01/08 13:49:05;;;;;;;;;;;8.90;99.90;;;;;;4938648;29;19934;-89
2023/01/08 13:51:37;;;;;;;;;;;8.40;99.90;;;;;;4938814;29;19966;-88
2023/01/08 13:54:06;;;;;;;;;;;8.40;99.90;;;;;;4939174;29;19933;-93
2023/01/08 13:56:35;;;;;;;;;;;8.50;99.90;;;;;;4938729;29;19927;-91
2023/01/08 13:59:00;;;;;;;;;;;8.50;99.90;;;;;;4938382;29;19977;-88
2023/01/08 14:01:26;;;;;;;;;;;8.50;99.90;;;;;;4938332;29;19927;-91
2023/01/08 14:03:52;;;;;;;;;;;8.70;99.90;;;;;;4938428;29;19934;-92
2023/01/08 14:06:35;;;;;;;;;;;8.50;99.90;;;;;;4938580;29;19931;-92
2023/01/08 14:09:10;;;;;;;;;;;8.50;99.90;;;;;;4938807;29;19982;-90
2023/01/08 14:11:39;;;;;;;;;;;8.60;99.90;;;;;;4938518;29;19934;-90
2023/01/08 14:14:09;;;;;;;;;;;8.40;99.90;;;;;;4938247;29;20291;-91
2023/01/08 14:16:36;;;;;;;;;;;8.50;99.90;;;;;;4938517;29;20413;-91
2023/01/08 14:19:03;;;;;;;;;;;8.50;99.90;;;;;;4938368;29;19931;-90
2023/01/08 14:21:29;;;;;;;;;;;8.40;99.90;;;;;;4938371;29;19927;-88
2023/01/08 14:24:05;;;;;;;;;;;8.40;99.90;;;;;;4921634;29;19927;-89
2023/01/08 14:26:35;;;;;;;;;;;8.40;99.90;;;;;;4937608;29;19974;-92
2023/01/08 14:29:02;;;;;;;;;;;8.40;99.90;;;;;;4937705;29;19927;-90
2023/01/08 14:31:39;;;;;;;;;;;8.50;99.90;;;;;;4937138;29;19935;-90
2023/01/08 14:34:05;;;;;;;;;;;8.40;99.90;;;;;;4937368;29;19978;-89
2023/01/08 14:36:31;;;;;;;;;;;8.40;99.90;;;;;;4937745;29;19930;-94
2023/01/08 14:38:56;;;;;;;;;;;8.60;99.90;;;;;;4937905;29;20005;-90
2023/01/08 14:42:40;;;;;;;;;;;8.40;99.90;;;;;;4937691;29;20021;-91
2023/01/08 14:44:20;;;;;;;;;;;8.20;99.90;;;;;;4937380;29;19927;-88
2023/01/08 14:46:49;;;;;;;;;;;8.20;99.90;;;;;;4938303;29;19985;-90